Time;durP1;ratioP1;P1;durP2;ratioP2;P2;SDS_P1;SDS_P2;PMS_P1;PMS_P2;Temp;Humidity;BMP_temperature;BMP_pressure;BME280_temperature;BME280_humidity;BME280_pressure;Samples;Min_cycle;Max_cycle;Signal;HPM_P1;HPM_P2
2023/09/02 00:00:34;;;;;;;16.83;12.40;;;;;;;;;;5069019;28;20044;-65
2023/09/02 00:03:00;;;;;;;14.70;11.50;;;;;;;;;;5090616;28;20061;-65
2023/09/02 00:05:26;;;;;;;16.80;12.80;;;;;;;;;;5090037;28;20051;-65
2023/09/02 00:07:52;;;;;;;16.73;12.93;;;;;;;;;;5090620;28;20040;-65
2023/09/02 00:10:18;;;;;;;19.25;13.65;;;;;;;;;;5090546;28;20504;-65
2023/09/02 00:12:44;;;;;;;15.52;12.70;;;;;;;;;;5090145;28;20398;-65
2023/09/02 00:15:10;;;;;;;19.13;14.13;;;;;;;;;;5080402;28;20064;-65
2023/09/02 00:17:36;;;;;;;18.95;13.95;;;;;;;;;;5070265;28;20071;-65
2023/09/02 00:20:07;;;;;;;16.48;12.65;;;;;;;;;;5089893;28;20542;-65
2023/09/02 00:22:33;;;;;;;14.27;11.82;;;;;;;;;;5089145;28;20116;-65
2023/09/02 00:24:59;;;;;;;18.33;12.63;;;;;;;;;;5090274;28;20040;-65
2023/09/02 00:27:25;;;;;;;15.77;12.65;;;;;;;;;;5088410;28;20052;-65
2023/09/02 00:29:51;;;;;;;16.20;11.88;;;;;;;;;;5090037;28;20395;-65
2023/09/02 00:32:17;;;;;;;14.82;12.73;;;;;;;;;;5090085;28;20105;-65
2023/09/02 00:34:44;;;;;;;15.82;12.95;;;;;;;;;;5088372;28;20070;-65
2023/09/02 00:37:10;;;;;;;18.08;12.27;;;;;;;;;;5090488;28;20452;-65
2023/09/02 00:39:36;;;;;;;19.23;13.25;;;;;;;;;;5090346;28;20048;-65
2023/09/02 00:42:04;;;;;;;19.20;13.48;;;;;;;;;;5089765;28;20454;-65
2023/09/02 00:44:30;;;;;;;14.05;12.50;;;;;;;;;;5090261;28;20040;-65
2023/09/02 00:46:58;;;;;;;17.75;12.93;;;;;;;;;;5088724;28;20098;-65
2023/09/02 00:49:24;;;;;;;16.10;13.70;;;;;;;;;;5089761;28;20128;-65
2023/09/02 00:51:50;;;;;;;17.17;13.73;;;;;;;;;;5089205;28;20402;-65
2023/09/02 00:54:16;;;;;;;15.75;13.38;;;;;;;;;;5051708;28;20051;-65
2023/09/02 00:56:42;;;;;;;16.77;13.57;;;;;;;;;;5069666;28;20482;-65
2023/09/02 00:59:08;;;;;;;14.82;13.07;;;;;;;;;;5068652;28;20040;-65
2023/09/02 01:01:35;;;;;;;16.20;13.00;;;;;;;;;;5069840;28;20028;-65
2023/09/02 01:04:04;;;;;;;16.90;13.13;;;;;;;;;;5069575;28;20513;-65
2023/09/02 01:06:30;;;;;;;18.10;13.95;;;;;;;;;;5068021;28;20123;-65
2023/09/02 01:08:56;;;;;;;17.65;13.75;;;;;;;;;;5069880;28;20037;-65
2023/09/02 01:11:22;;;;;;;15.68;13.48;;;;;;;;;;5069495;28;20086;-65
2023/09/02 01:13:48;;;;;;;19.85;13.50;;;;;;;;;;5069052;28;20090;-65
2023/09/02 01:16:14;;;;;;;22.48;15.23;;;;;;;;;;5087374;28;20032;-65
2023/09/02 01:18:40;;;;;;;18.55;13.88;;;;;;;;;;5093790;28;20530;-65
2023/09/02 01:21:18;;;;;;;15.52;13.85;;;;;;;;;;5093129;28;20067;-65
2023/09/02 01:23:45;;;;;;;16.65;12.57;;;;;;;;;;5093578;28;20444;-65
2023/09/02 01:26:30;;;;;;;14.95;12.27;;;;;;;;;;5092179;28;20048;-65
2023/09/02 01:29:00;;;;;;;20.88;13.38;;;;;;;;;;5091748;28;20050;-65
2023/09/02 01:31:26;;;;;;;17.38;13.88;;;;;;;;;;5093209;28;20044;-65
2023/09/02 01:33:53;;;;;;;14.52;13.00;;;;;;;;;;5092920;28;20052;-65
2023/09/02 01:36:20;;;;;;;17.23;14.55;;;;;;;;;;5093307;28;20079;-65
2023/09/02 01:38:48;;;;;;;18.67;14.02;;;;;;;;;;5093337;28;20121;-65
2023/09/02 01:41:15;;;;;;;18.17;14.68;;;;;;;;;;5092850;28;20044;-65
2023/09/02 01:43:43;;;;;;;18.80;14.55;;;;;;;;;;5093314;28;20076;-65
2023/09/02 01:46:10;;;;;;;16.00;14.30;;;;;;;;;;5092831;28;20395;-65
2023/09/02 01:48:36;;;;;;;17.50;14.57;;;;;;;;;;5091276;28;20040;-65
2023/09/02 01:51:02;;;;;;;18.70;15.73;;;;;;;;;;5092955;28;20040;-65
2023/09/02 01:53:29;;;;;;;19.40;15.23;;;;;;;;;;5077263;28;20043;-65
2023/09/02 01:55:55;;;;;;;19.48;15.55;;;;;;;;;;5072065;28;20040;-65
2023/09/02 01:58:21;;;;;;;19.00;14.10;;;;;;;;;;5071219;28;20063;-65
2023/09/02 02:00:48;;;;;;;21.30;15.90;;;;;;;;;;5071243;28;20040;-65
2023/09/02 02:03:17;;;;;;;17.17;14.73;;;;;;;;;;5072401;28;20041;-65
2023/09/02 02:05:48;;;;;;;17.30;15.13;;;;;;;;;;5072582;28;20044;-65
2023/09/02 02:08:20;;;;;;;23.45;16.00;;;;;;;;;;5072212;28;20080;-65
2023/09/02 02:10:46;;;;;;;19.05;15.60;;;;;;;;;;5070803;28;20044;-65
2023/09/02 02:13:13;;;;;;;20.63;15.88;;;;;;;;;;5072390;28;20040;-65
2023/09/02 02:15:39;;;;;;;20.25;15.25;;;;;;;;;;5085062;28;20039;-65
2023/09/02 02:18:05;;;;;;;17.40;15.50;;;;;;;;;;5090817;28;20048;-65
2023/09/02 02:20:34;;;;;;;18.88;15.20;;;;;;;;;;5091973;28;20040;-65
2023/09/02 02:23:00;;;;;;;21.65;15.80;;;;;;;;;;5090958;28;20072;-65
2023/09/02 02:25:26;;;;;;;18.73;14.82;;;;;;;;;;5092238;28;20051;-65
2023/09/02 02:27:52;;;;;;;18.63;14.93;;;;;;;;;;5090970;28;20048;-65
2023/09/02 02:30:18;;;;;;;20.83;15.80;;;;;;;;;;5073286;28;20048;-65
2023/09/02 02:32:44;;;;;;;19.17;15.32;;;;;;;;;;5092277;28;20044;-65
2023/09/02 02:35:10;;;;;;;20.67;15.80;;;;;;;;;;5091846;28;20066;-65
2023/09/02 02:37:36;;;;;;;20.80;15.27;;;;;;;;;;5090905;28;20032;-65
2023/09/02 02:40:02;;;;;;;22.58;16.98;;;;;;;;;;5092302;28;20494;-65
2023/09/02 02:42:28;;;;;;;20.33;16.08;;;;;;;;;;5091330;28;20040;-65
2023/09/02 02:44:54;;;;;;;20.90;16.65;;;;;;;;;;5092084;28;20123;-65
2023/09/02 02:47:20;;;;;;;23.73;16.20;;;;;;;;;;5090490;28;20044;-65
2023/09/02 02:49:46;;;;;;;18.52;15.38;;;;;;;;;;5091675;28;20267;-65
2023/09/02 02:52:12;;;;;;;21.35;16.10;;;;;;;;;;5087934;28;20094;-65
2023/09/02 02:54:38;;;;;;;21.40;16.17;;;;;;;;;;5053702;28;20044;-65
2023/09/02 02:57:04;;;;;;;17.88;15.95;;;;;;;;;;5069545;28;20387;-65
2023/09/02 02:59:30;;;;;;;20.92;16.13;;;;;;;;;;5069896;28;20106;-65
2023/09/02 03:01:56;;;;;;;22.20;16.05;;;;;;;;;;5071106;28;20044;-65
2023/09/02 03:04:22;;;;;;;21.20;17.42;;;;;;;;;;5070865;28;20098;-65
2023/09/02 03:06:48;;;;;;;21.15;15.52;;;;;;;;;;5071253;28;20044;-65
2023/09/02 03:09:14;;;;;;;20.60;16.58;;;;;;;;;;5071047;28;20461;-65
2023/09/02 03:11:40;;;;;;;19.13;16.30;;;;;;;;;;5070801;28;20048;-65
2023/09/02 03:14:06;;;;;;;23.40;17.42;;;;;;;;;;5071085;28;20452;-65
2023/09/02 03:16:32;;;;;;;22.67;17.17;;;;;;;;;;5091203;28;20036;-65
2023/09/02 03:18:58;;;;;;;22.08;17.02;;;;;;;;;;5090984;28;20032;-65
2023/09/02 03:21:24;;;;;;;19.67;16.40;;;;;;;;;;5072750;28;20062;-65
2023/09/02 03:23:50;;;;;;;21.55;16.85;;;;;;;;;;5090110;28;20052;-65
2023/09/02 03:26:16;;;;;;;19.58;16.65;;;;;;;;;;5089505;28;20036;-65
2023/09/02 03:28:42;;;;;;;19.48;16.05;;;;;;;;;;5089555;28;20094;-65
2023/09/02 03:31:09;;;;;;;21.83;16.70;;;;;;;;;;5090951;28;20052;-65
2023/09/02 03:33:35;;;;;;;20.33;16.63;;;;;;;;;;5089080;28;20051;-65
2023/09/02 03:36:01;;;;;;;25.10;18.00;;;;;;;;;;5090507;28;20482;-65
2023/09/02 03:38:27;;;;;;;20.77;17.15;;;;;;;;;;5091020;28;20628;-65
2023/09/02 03:40:54;;;;;;;21.52;16.90;;;;;;;;;;5088983;28;20032;-65
2023/09/02 03:43:20;;;;;;;23.20;17.15;;;;;;;;;;5089939;28;20513;-65
2023/09/02 03:45:48;;;;;;;23.13;18.30;;;;;;;;;;5090439;28;20043;-65
2023/09/02 03:48:18;;;;;;;20.30;16.27;;;;;;;;;;5089146;28;20513;-65
2023/09/02 03:51:16;;;;;;;20.00;16.67;;;;;;;;;;5089495;28;20047;-65
2023/09/02 03:53:42;;;;;;;21.70;16.50;;;;;;;;;;5068791;28;20055;-65
2023/09/02 03:56:08;;;;;;;23.75;17.48;;;;;;;;;;5070119;28;20044;-65
2023/09/02 03:58:34;;;;;;;20.10;16.35;;;;;;;;;;5070788;28;20115;-65
2023/09/02 04:01:00;;;;;;;18.58;15.98;;;;;;;;;;5070419;28;20066;-65
2023/09/02 04:03:27;;;;;;;20.85;17.52;;;;;;;;;;5070041;28;20494;-65
2023/09/02 04:05:53;;;;;;;21.73;16.65;;;;;;;;;;5070302;28;20045;-65
2023/09/02 04:08:20;;;;;;;22.30;16.55;;;;;;;;;;5068856;28;20120;-65
2023/09/02 04:10:51;;;;;;;18.95;16.50;;;;;;;;;;5069950;28;20049;-65
2023/09/02 04:13:17;;;;;;;23.70;16.73;;;;;;;;;;5070259;28;20040;-65
2023/09/02 04:15:43;;;;;;;22.25;16.38;;;;;;;;;;5082008;28;20040;-65
2023/09/02 04:18:09;;;;;;;23.13;17.17;;;;;;;;;;5090093;28;20047;-65
2023/09/02 04:20:35;;;;;;;26.38;16.50;;;;;;;;;;5090666;28;20051;-65
2023/09/02 04:23:01;;;;;;;23.92;17.05;;;;;;;;;;5088970;28;20397;-65
2023/09/02 04:25:27;;;;;;;20.58;16.52;;;;;;;;;;5088499;28;20044;-65
2023/09/02 04:27:53;;;;;;;21.33;17.33;;;;;;;;;;5090348;28;20046;-65
2023/09/02 04:30:19;;;;;;;21.70;17.50;;;;;;;;;;5089814;28;20105;-65
2023/09/02 04:32:49;;;;;;;21.95;17.92;;;;;;;;;;5090165;28;20047;-65
2023/09/02 04:35:15;;;;;;;19.60;15.93;;;;;;;;;;5088972;28;20044;-65
2023/09/02 04:37:41;;;;;;;22.10;17.00;;;;;;;;;;5088778;28;20044;-65
2023/09/02 04:40:08;;;;;;;21.02;17.33;;;;;;;;;;5089868;28;20089;-65
2023/09/02 04:42:34;;;;;;;24.45;17.98;;;;;;;;;;5088785;28;20044;-65
2023/09/02 04:45:00;;;;;;;22.83;16.60;;;;;;;;;;5090348;28;20040;-65
2023/09/02 04:47:26;;;;;;;23.42;17.13;;;;;;;;;;5089826;28;20044;-65
2023/09/02 04:49:52;;;;;;;24.33;17.05;;;;;;;;;;5090218;28;20040;-65
2023/09/02 04:52:19;;;;;;;21.85;18.13;;;;;;;;;;5087248;28;20028;-65
2023/09/02 04:54:45;;;;;;;25.27;17.88;;;;;;;;;;5071941;28;20123;-65
2023/09/02 04:57:12;;;;;;;28.05;18.92;;;;;;;;;;5073936;28;20078;-65
2023/09/02 04:59:38;;;;;;;22.67;18.27;;;;;;;;;;5055706;28;20072;-65
2023/09/02 05:02:05;;;;;;;25.55;18.98;;;;;;;;;;5073193;28;20099;-65
2023/09/02 05:04:31;;;;;;;24.38;19.50;;;;;;;;;;5073394;28;20048;-65
2023/09/02 05:06:57;;;;;;;23.73;19.23;;;;;;;;;;5073530;28;20044;-65
2023/09/02 05:09:23;;;;;;;27.20;19.23;;;;;;;;;;5073587;28;20395;-65
2023/09/02 05:11:49;;;;;;;25.60;19.10;;;;;;;;;;5073214;28;20079;-65
2023/09/02 05:14:15;;;;;;;24.70;19.20;;;;;;;;;;5072888;28;20044;-65
2023/09/02 05:16:41;;;;;;;25.73;19.70;;;;;;;;;;5093219;28;20097;-65
2023/09/02 05:19:08;;;;;;;24.27;18.42;;;;;;;;;;5092038;28;20394;-65
2023/09/02 05:21:34;;;;;;;24.88;18.70;;;;;;;;;;5093365;28;20100;-65
2023/09/02 05:24:00;;;;;;;25.50;18.05;;;;;;;;;;5093268;28;20127;-65
2023/09/02 05:26:26;;;;;;;24.60;18.63;;;;;;;;;;5093512;28;20140;-65
2023/09/02 05:28:54;;;;;;;23.38;18.30;;;;;;;;;;5091962;28;20402;-65
2023/09/02 05:31:20;;;;;;;23.80;19.17;;;;;;;;;;5092530;28;20062;-65
2023/09/02 05:33:47;;;;;;;26.48;19.58;;;;;;;;;;5091946;28;20039;-65
2023/09/02 05:36:13;;;;;;;28.80;19.90;;;;;;;;;;5091784;28;20405;-65
2023/09/02 05:38:39;;;;;;;26.17;19.60;;;;;;;;;;5092945;28;20039;-65
2023/09/02 05:41:05;;;;;;;24.98;18.73;;;;;;;;;;5092945;28;20381;-65
2023/09/02 05:43:31;;;;;;;27.23;19.90;;;;;;;;;;5092983;28;20060;-65
2023/09/02 05:46:01;;;;;;;25.27;19.73;;;;;;;;;;5092780;28;20040;-65
2023/09/02 05:48:27;;;;;;;27.20;20.05;;;;;;;;;;5093258;28;20039;-65
2023/09/02 05:51:02;;;;;;;30.30;20.92;;;;;;;;;;5092757;28;20055;-65
2023/09/02 05:53:29;;;;;;;31.35;21.77;;;;;;;;;;5078087;28;20080;-65
2023/09/02 05:55:55;;;;;;;28.98;22.23;;;;;;;;;;5071340;28;20044;-65
2023/09/02 05:58:25;;;;;;;34.28;21.75;;;;;;;;;;5072697;28;20617;-65
2023/09/02 06:00:51;;;;;;;35.20;24.58;;;;;;;;;;5071183;28;20050;-65
2023/09/02 06:03:17;;;;;;;37.83;25.23;;;;;;;;;;5072689;28;20040;-65
2023/09/02 06:05:43;;;;;;;36.47;25.58;;;;;;;;;;5070961;28;20053;-65
2023/09/02 06:08:09;;;;;;;38.38;25.25;;;;;;;;;;5072030;28;20080;-65
2023/09/02 06:10:36;;;;;;;36.28;25.48;;;;;;;;;;5070835;28;20051;-65
2023/09/02 06:13:02;;;;;;;40.72;28.10;;;;;;;;;;5071133;28;20102;-65
2023/09/02 06:15:28;;;;;;;45.30;29.85;;;;;;;;;;5065079;28;20047;-65
2023/09/02 06:17:54;;;;;;;39.75;27.77;;;;;;;;;;5092597;28;20040;-66
2023/09/02 06:20:20;;;;;;;46.00;29.95;;;;;;;;;;5091312;28;20073;-66
2023/09/02 06:22:46;;;;;;;38.30;26.58;;;;;;;;;;5090598;28;20181;-66
2023/09/02 06:25:13;;;;;;;42.75;28.38;;;;;;;;;;5092341;28;20485;-66
2023/09/02 06:27:39;;;;;;;43.78;29.17;;;;;;;;;;5092473;28;20520;-66
2023/09/02 06:30:05;;;;;;;41.03;28.92;;;;;;;;;;5091512;28;20066;-66
2023/09/02 06:32:31;;;;;;;54.83;32.03;;;;;;;;;;5092141;28;20047;-66
2023/09/02 06:34:57;;;;;;;48.40;32.63;;;;;;;;;;5092099;28;20120;-66
2023/09/02 06:37:24;;;;;;;46.33;30.30;;;;;;;;;;5090553;28;20043;-66
2023/09/02 06:39:56;;;;;;;51.30;32.88;;;;;;;;;;5091879;28;20062;-66
2023/09/02 06:42:23;;;;;;;48.30;31.73;;;;;;;;;;5091982;28;20032;-66
2023/09/02 06:44:53;;;;;;;50.38;31.77;;;;;;;;;;5091701;28;20038;-66
2023/09/02 06:47:19;;;;;;;47.20;30.42;;;;;;;;;;5090425;28;20035;-66
2023/09/02 06:49:45;;;;;;;48.65;31.75;;;;;;;;;;5092013;28;20482;-66
2023/09/02 06:52:11;;;;;;;45.88;32.00;;;;;;;;;;5087669;28;20110;-66
2023/09/02 06:54:36;;;;;;;48.50;31.77;;;;;;;;;;5071455;28;20047;-66
2023/09/02 06:57:03;;;;;;;50.25;31.02;;;;;;;;;;5071744;28;20558;-66
2023/09/02 06:59:29;;;;;;;51.45;32.97;;;;;;;;;;5069581;28;20440;-66
2023/09/02 07:01:55;;;;;;;45.13;29.58;;;;;;;;;;5071406;28;20034;-66
2023/09/02 07:04:21;;;;;;;46.88;30.52;;;;;;;;;;5071485;28;20461;-66
2023/09/02 07:06:47;;;;;;;50.70;30.95;;;;;;;;;;5070642;28;20126;-66
2023/09/02 07:09:13;;;;;;;48.58;31.38;;;;;;;;;;5071330;28;20079;-66
2023/09/02 07:11:39;;;;;;;48.60;29.83;;;;;;;;;;5071214;28;20143;-66
2023/09/02 07:14:05;;;;;;;47.47;29.33;;;;;;;;;;5068940;28;20128;-66
2023/09/02 07:16:31;;;;;;;50.30;30.77;;;;;;;;;;5089524;28;20036;-66
2023/09/02 07:18:58;;;;;;;45.00;29.67;;;;;;;;;;5091335;28;20064;-66
2023/09/02 07:21:24;;;;;;;47.00;32.88;;;;;;;;;;5091100;28;20040;-66
2023/09/02 07:23:51;;;;;;;46.55;31.42;;;;;;;;;;5089770;28;20124;-66
2023/09/02 07:26:17;;;;;;;48.78;31.02;;;;;;;;;;5091173;28;20044;-66
2023/09/02 07:28:43;;;;;;;50.17;30.45;;;;;;;;;;5089856;28;20393;-66
2023/09/02 07:31:09;;;;;;;45.75;29.75;;;;;;;;;;5090604;28;20493;-66
2023/09/02 07:33:36;;;;;;;47.85;30.70;;;;;;;;;;5091087;28;20083;-66
2023/09/02 07:36:09;;;;;;;50.03;31.90;;;;;;;;;;5091005;28;20479;-66
2023/09/02 07:38:35;;;;;;;49.55;32.25;;;;;;;;;;5090705;28;20043;-66
2023/09/02 07:41:01;;;;;;;50.30;31.33;;;;;;;;;;5090954;28;20051;-66
2023/09/02 07:43:27;;;;;;;48.58;31.50;;;;;;;;;;5090941;28;20043;-66
2023/09/02 07:45:54;;;;;;;44.95;30.85;;;;;;;;;;5090711;28;20039;-66
2023/09/02 07:48:20;;;;;;;46.83;30.27;;;;;;;;;;5090780;28;20411;-66
2023/09/02 07:50:46;;;;;;;47.30;31.25;;;;;;;;;;5089491;28;20052;-66
2023/09/02 07:53:13;;;;;;;43.55;29.40;;;;;;;;;;5078055;28;20097;-66
2023/09/02 07:55:39;;;;;;;49.05;31.27;;;;;;;;;;5070562;28;20525;-66
2023/09/02 07:58:06;;;;;;;40.47;29.15;;;;;;;;;;5070653;28;20036;-66
2023/09/02 08:00:35;;;;;;;46.72;29.98;;;;;;;;;;5068399;28;20051;-66
2023/09/02 08:03:02;;;;;;;49.20;31.48;;;;;;;;;;5070507;28;20044;-66
2023/09/02 08:05:28;;;;;;;45.25;29.45;;;;;;;;;;5070409;28;20483;-66
2023/09/02 08:07:54;;;;;;;47.78;30.27;;;;;;;;;;5070083;28;20120;-66
2023/09/02 08:10:20;;;;;;;42.95;29.17;;;;;;;;;;5068971;28;20046;-66
2023/09/02 08:12:46;;;;;;;42.40;27.42;;;;;;;;;;5070253;28;20094;-66
2023/09/02 08:15:12;;;;;;;46.30;30.10;;;;;;;;;;5078394;28;20290;-66
2023/09/02 08:17:38;;;;;;;40.53;28.10;;;;;;;;;;5090463;28;20044;-66
2023/09/02 08:20:05;;;;;;;49.28;29.52;;;;;;;;;;5089106;28;20047;-66
2023/09/02 08:22:31;;;;;;;43.42;26.65;;;;;;;;;;5089932;28;20048;-66
2023/09/02 08:24:57;;;;;;;35.17;25.17;;;;;;;;;;5090545;28;20036;-66
2023/09/02 08:27:24;;;;;;;37.63;25.13;;;;;;;;;;5092844;28;20040;-66
2023/09/02 08:29:50;;;;;;;34.38;25.77;;;;;;;;;;5093802;28;20048;-66
2023/09/02 08:32:16;;;;;;;41.33;27.50;;;;;;;;;;5094171;28;20047;-66
2023/09/02 08:34:42;;;;;;;39.75;24.77;;;;;;;;;;5094418;28;20123;-66
2023/09/02 08:37:08;;;;;;;35.95;25.40;;;;;;;;;;5092521;28;20055;-66
2023/09/02 08:39:34;;;;;;;37.10;24.75;;;;;;;;;;5094408;28;20044;-66
2023/09/02 08:42:01;;;;;;;39.97;26.20;;;;;;;;;;5092964;28;20478;-66
2023/09/02 08:44:28;;;;;;;40.60;26.02;;;;;;;;;;5092846;28;20051;-66
2023/09/02 08:46:55;;;;;;;36.22;25.65;;;;;;;;;;5094103;28;20086;-66
2023/09/02 08:49:22;;;;;;;33.58;24.67;;;;;;;;;;5092814;28;20058;-66
2023/09/02 08:51:48;;;;;;;33.35;23.83;;;;;;;;;;5093345;28;20054;-66
2023/09/02 08:54:14;;;;;;;37.22;25.13;;;;;;;;;;5072216;28;20123;-65
2023/09/02 08:56:42;;;;;;;40.10;24.98;;;;;;;;;;5073652;28;20041;-65
2023/09/02 08:59:09;;;;;;;36.38;24.40;;;;;;;;;;5073310;28;20383;-65
2023/09/02 09:01:36;;;;;;;37.22;22.75;;;;;;;;;;5073711;28;20044;-65
2023/09/02 09:04:02;;;;;;;33.35;23.98;;;;;;;;;;5072081;28;20044;-65
2023/09/02 09:06:28;;;;;;;34.88;24.92;;;;;;;;;;5071683;28;20098;-65
2023/09/02 09:08:55;;;;;;;33.33;23.25;;;;;;;;;;5073662;28;20037;-65
2023/09/02 09:11:22;;;;;;;31.00;21.80;;;;;;;;;;5073553;28;20052;-65
2023/09/02 09:13:49;;;;;;;36.22;22.92;;;;;;;;;;5072823;28;20049;-65
2023/09/02 09:16:25;;;;;;;34.75;22.90;;;;;;;;;;5090905;28;20497;-65
2023/09/02 09:18:51;;;;;;;35.63;22.55;;;;;;;;;;5093722;28;20451;-66
2023/09/02 09:21:17;;;;;;;36.95;23.30;;;;;;;;;;5092915;28;20135;-66
2023/09/02 09:23:43;;;;;;;35.05;21.88;;;;;;;;;;5075541;28;20079;-66
2023/09/02 09:26:13;;;;;;;35.40;20.95;;;;;;;;;;5093584;28;20044;-66
2023/09/02 09:28:53;;;;;;;31.98;21.70;;;;;;;;;;5091823;28;20060;-66
2023/09/02 09:31:19;;;;;;;35.85;22.55;;;;;;;;;;5093395;28;20048;-66
2023/09/02 09:33:55;;;;;;;31.27;22.05;;;;;;;;;;5093053;28;20075;-66
2023/09/02 09:36:22;;;;;;;39.50;22.05;;;;;;;;;;5092888;28;20486;-66
2023/09/02 09:38:49;;;;;;;31.60;21.00;;;;;;;;;;5092849;28;20376;-66
2023/09/02 09:41:15;;;;;;;35.90;21.80;;;;;;;;;;5091511;28;20044;-66
2023/09/02 09:43:41;;;;;;;34.67;20.67;;;;;;;;;;5092568;28;20526;-66
2023/09/02 09:46:07;;;;;;;32.35;21.17;;;;;;;;;;5093168;28;20047;-66
2023/09/02 09:48:33;;;;;;;37.00;22.05;;;;;;;;;;5092874;28;20423;-66
2023/09/02 09:50:59;;;;;;;29.85;20.27;;;;;;;;;;5092725;28;20097;-66
2023/09/02 09:53:31;;;;;;;30.40;18.40;;;;;;;;;;5077533;28;20044;-66
2023/09/02 09:56:02;;;;;;;29.67;18.38;;;;;;;;;;5071556;28;20483;-66
2023/09/02 09:58:28;;;;;;;29.52;19.02;;;;;;;;;;5072173;28;20115;-66
2023/09/02 10:00:54;;;;;;;31.30;19.67;;;;;;;;;;5072633;28;20108;-66
2023/09/02 10:03:29;;;;;;;30.52;20.13;;;;;;;;;;5072946;28;20047;-66
2023/09/02 10:05:59;;;;;;;27.88;19.83;;;;;;;;;;5072277;28;20036;-66
2023/09/02 10:08:25;;;;;;;26.92;18.00;;;;;;;;;;5072443;28;20036;-66
2023/09/02 10:10:51;;;;;;;25.35;17.60;;;;;;;;;;5072753;28;20501;-66
2023/09/02 10:13:17;;;;;;;27.13;16.70;;;;;;;;;;5072112;28;20565;-66
2023/09/02 10:15:44;;;;;;;27.88;17.35;;;;;;;;;;5085580;28;20149;-66
2023/09/02 10:18:10;;;;;;;29.05;18.45;;;;;;;;;;5092629;28;20039;-66
2023/09/02 10:20:38;;;;;;;29.10;16.63;;;;;;;;;;5092041;28;20032;-66
2023/09/02 10:23:04;;;;;;;22.80;15.38;;;;;;;;;;5091271;28;20490;-65
2023/09/02 10:25:34;;;;;;;21.30;13.85;;;;;;;;;;5091401;28;20036;-65
2023/09/02 10:28:01;;;;;;;23.60;16.45;;;;;;;;;;5090655;28;20058;-65
2023/09/02 10:30:31;;;;;;;25.88;15.65;;;;;;;;;;5091882;28;20060;-66
2023/09/02 10:33:03;;;;;;;21.30;16.13;;;;;;;;;;5092326;28;20051;-66
2023/09/02 10:35:29;;;;;;;23.58;16.38;;;;;;;;;;5090324;28;20036;-66
2023/09/02 10:37:55;;;;;;;23.88;15.25;;;;;;;;;;5091975;28;20131;-66
2023/09/02 10:40:28;;;;;;;26.98;16.25;;;;;;;;;;5091757;28;20051;-66
2023/09/02 10:42:55;;;;;;;20.80;16.00;;;;;;;;;;5090041;28;20064;-66
2023/09/02 10:45:21;;;;;;;23.35;15.20;;;;;;;;;;5092062;28;20134;-66
2023/09/02 10:47:48;;;;;;;24.58;16.77;;;;;;;;;;5091898;28;20386;-66
2023/09/02 10:50:15;;;;;;;26.58;15.48;;;;;;;;;;5090375;28;20436;-66
2023/09/02 10:52:41;;;;;;;22.67;14.70;;;;;;;;;;5084072;28;20052;-66
2023/09/02 10:55:08;;;;;;;28.60;15.85;;;;;;;;;;5071734;28;20364;-66
2023/09/02 10:57:49;;;;;;;22.40;14.43;;;;;;;;;;5071278;28;20037;-66
2023/09/02 11:00:16;;;;;;;25.05;15.10;;;;;;;;;;5053536;28;20044;-66
2023/09/02 11:02:43;;;;;;;24.45;15.55;;;;;;;;;;5071614;28;20094;-66
2023/09/02 11:05:09;;;;;;;22.38;15.50;;;;;;;;;;5070975;28;20094;-66
2023/09/02 11:07:36;;;;;;;20.73;14.98;;;;;;;;;;5071354;28;20498;-66
2023/09/02 11:10:03;;;;;;;18.90;14.10;;;;;;;;;;5070456;28;20051;-66
2023/09/02 11:12:29;;;;;;;19.00;12.77;;;;;;;;;;5052665;28;20120;-66
2023/09/02 11:15:07;;;;;;;23.85;13.55;;;;;;;;;;5077662;28;20044;-66
2023/09/02 11:17:33;;;;;;;17.98;12.23;;;;;;;;;;5090330;28;20443;-66
2023/09/02 11:20:03;;;;;;;16.75;12.80;;;;;;;;;;5091076;28;20379;-66
2023/09/02 11:22:48;;;;;;;16.88;12.65;;;;;;;;;;5090987;28;20239;-66
2023/09/02 11:25:26;;;;;;;18.00;11.48;;;;;;;;;;5089839;28;20044;-66
2023/09/02 11:27:53;;;;;;;14.93;11.20;;;;;;;;;;5090713;28;20071;-65
2023/09/02 11:30:19;;;;;;;14.68;11.05;;;;;;;;;;5090612;28;20080;-65
2023/09/02 11:32:45;;;;;;;20.25;10.57;;;;;;;;;;5091063;28;20398;-65
2023/09/02 11:35:15;;;;;;;13.57;9.32;;;;;;;;;;5090601;28;20040;-65
2023/09/02 11:37:41;;;;;;;13.82;10.63;;;;;;;;;;5089512;28;20402;-65
2023/09/02 11:40:14;;;;;;;15.77;9.93;;;;;;;;;;5091091;28;20067;-65
2023/09/02 11:42:54;;;;;;;12.52;9.57;;;;;;;;;;5089093;28;20046;-63
2023/09/02 11:45:20;;;;;;;15.65;9.10;;;;;;;;;;5089391;28;20096;-63
2023/09/02 11:47:50;;;;;;;12.50;7.78;;;;;;;;;;5089276;28;20040;-63
2023/09/02 11:50:17;;;;;;;13.23;9.63;;;;;;;;;;5088794;28;20173;-63
2023/09/02 11:52:44;;;;;;;13.80;9.80;;;;;;;;;;5082651;28;20044;-63
2023/09/02 11:55:11;;;;;;;14.55;9.45;;;;;;;;;;5070907;28;20036;-63
2023/09/02 11:57:37;;;;;;;17.98;9.30;;;;;;;;;;5070186;28;20048;-65
2023/09/02 12:00:03;;;;;;;11.05;8.52;;;;;;;;;;5069199;28;20036;-63
2023/09/02 12:02:29;;;;;;;13.57;9.02;;;;;;;;;;5069168;28;20036;-63
2023/09/02 12:04:55;;;;;;;12.60;8.70;;;;;;;;;;5070193;28;20048;-63
2023/09/02 12:07:22;;;;;;;11.98;8.15;;;;;;;;;;5052535;28;20048;-63
2023/09/02 12:09:48;;;;;;;14.15;8.43;;;;;;;;;;5070601;28;20071;-63
2023/09/02 12:12:15;;;;;;;17.90;8.80;;;;;;;;;;5070039;28;20044;-63
2023/09/02 12:14:41;;;;;;;12.40;7.20;;;;;;;;;;5073210;28;20115;-63
2023/09/02 12:17:08;;;;;;;11.93;7.90;;;;;;;;;;5089142;28;20040;-63
2023/09/02 12:19:34;;;;;;;14.50;9.10;;;;;;;;;;5090185;28;20374;-63
2023/09/02 12:22:00;;;;;;;11.52;7.28;;;;;;;;;;5090375;28;20089;-63
2023/09/02 12:24:29;;;;;;;13.77;7.97;;;;;;;;;;5090593;28;20103;-63
2023/09/02 12:26:55;;;;;;;12.10;7.40;;;;;;;;;;5089750;28;20093;-63
2023/09/02 12:29:22;;;;;;;11.85;7.10;;;;;;;;;;5090172;28;20054;-63
2023/09/02 12:31:57;;;;;;;10.98;6.78;;;;;;;;;;5089056;28;20411;-63
2023/09/02 12:34:24;;;;;;;10.75;6.35;;;;;;;;;;5089763;28;20040;-63
2023/09/02 12:36:50;;;;;;;13.73;6.95;;;;;;;;;;5089936;28;20124;-63
2023/09/02 12:39:25;;;;;;;7.10;5.40;;;;;;;;;;5090367;28;20040;-63
2023/09/02 12:41:51;;;;;;;11.77;7.05;;;;;;;;;;5089790;28;20135;-63
2023/09/02 12:44:20;;;;;;;9.57;6.55;;;;;;;;;;5088735;28;20040;-63
2023/09/02 12:46:47;;;;;;;10.75;7.10;;;;;;;;;;5071888;28;20071;-63
2023/09/02 12:49:16;;;;;;;10.23;6.50;;;;;;;;;;5089594;28;20483;-63
2023/09/02 12:51:42;;;;;;;10.48;6.15;;;;;;;;;;5090192;28;20093;-63
2023/09/02 12:54:09;;;;;;;11.38;6.80;;;;;;;;;;5070232;28;20441;-63
2023/09/02 12:56:36;;;;;;;11.05;6.63;;;;;;;;;;5068526;28;20482;-63
2023/09/02 12:59:01;;;;;;;9.55;6.50;;;;;;;;;;5068530;28;20123;-66
2023/09/02 13:01:27;;;;;;;10.88;7.07;;;;;;;;;;5068261;28;20040;-66
2023/09/02 13:03:54;;;;;;;8.98;6.57;;;;;;;;;;5069247;28;20147;-66
2023/09/02 13:06:20;;;;;;;7.97;5.82;;;;;;;;;;5069931;28;20041;-66
2023/09/02 13:08:47;;;;;;;10.32;6.05;;;;;;;;;;5069951;28;20040;-66
2023/09/02 13:11:13;;;;;;;9.55;5.75;;;;;;;;;;5069536;28;20052;-64
2023/09/02 13:13:39;;;;;;;7.75;5.13;;;;;;;;;;5072414;28;20056;-64
2023/09/02 13:16:05;;;;;;;8.35;5.22;;;;;;;;;;5089645;28;20051;-64
2023/09/02 13:18:31;;;;;;;9.15;5.68;;;;;;;;;;5093484;28;20039;-64
2023/09/02 13:20:59;;;;;;;7.25;5.00;;;;;;;;;;5093753;28;20109;-64
2023/09/02 13:23:25;;;;;;;12.45;5.75;;;;;;;;;;5092430;28;20052;-64
2023/09/02 13:25:51;;;;;;;9.07;5.97;;;;;;;;;;5091707;28;20052;-64
2023/09/02 13:28:17;;;;;;;8.95;6.00;;;;;;;;;;5093713;28;20067;-64
2023/09/02 13:30:46;;;;;;;8.27;5.43;;;;;;;;;;5093292;28;20057;-64
2023/09/02 13:33:13;;;;;;;12.05;5.82;;;;;;;;;;5093124;28;20434;-64
2023/09/02 13:35:39;;;;;;;8.25;5.45;;;;;;;;;;5093535;28;20505;-64
2023/09/02 13:38:06;;;;;;;10.65;5.65;;;;;;;;;;5093439;28;20040;-64
2023/09/02 13:40:34;;;;;;;7.90;5.38;;;;;;;;;;5091463;28;20058;-64
2023/09/02 13:43:03;;;;;;;7.60;5.10;;;;;;;;;;5093372;28;20443;-64
2023/09/02 13:45:30;;;;;;;8.30;4.97;;;;;;;;;;5093352;28;20040;-64
2023/09/02 13:47:57;;;;;;;9.13;5.68;;;;;;;;;;5092760;28;20431;-64
2023/09/02 13:50:23;;;;;;;7.72;5.80;;;;;;;;;;5093061;28;20040;-64
2023/09/02 13:52:50;;;;;;;9.80;5.30;;;;;;;;;;5083772;28;20044;-64
2023/09/02 13:55:21;;;;;;;10.90;5.25;;;;;;;;;;5072642;28;20086;-64
2023/09/02 13:57:47;;;;;;;8.38;4.45;;;;;;;;;;5054719;28;20033;-64
2023/09/02 14:00:17;;;;;;;7.03;4.43;;;;;;;;;;5072474;28;20051;-64
2023/09/02 14:02:44;;;;;;;5.40;4.00;;;;;;;;;;5072417;28;20040;-64
2023/09/02 14:05:18;;;;;;;8.35;4.32;;;;;;;;;;5072572;28;20311;-64
2023/09/02 14:07:44;;;;;;;6.30;4.50;;;;;;;;;;5072109;28;20040;-64
2023/09/02 14:10:11;;;;;;;9.70;4.32;;;;;;;;;;5071934;28;20059;-64
2023/09/02 14:12:37;;;;;;;9.13;5.00;;;;;;;;;;5072523;28;20306;-64
2023/09/02 14:15:03;;;;;;;7.82;5.07;;;;;;;;;;5079824;28;20072;-64
2023/09/02 14:17:30;;;;;;;7.53;4.38;;;;;;;;;;5092206;28;20039;-64
2023/09/02 14:19:56;;;;;;;9.88;4.70;;;;;;;;;;5092586;28;20394;-64